Time;durP1;ratioP1;P1;durP2;ratioP2;P2;SDS_P1;SDS_P2;PMS_P1;PMS_P2;Temp;Humidity;BMP_temperature;BMP_pressure;BME280_temperature;BME280_humidity;BME280_pressure;Samples;Min_cycle;Max_cycle;Signal;HPM_P1;HPM_P2
2021/11/14 00:00:10;;;;;;;8.27;4.60;;;;;;;;;;5070736;28;20033;-52
2021/11/14 00:02:36;;;;;;;6.53;4.75;;;;;;;;;;5072145;28;20496;-51
2021/11/14 00:05:03;;;;;;;6.35;4.28;;;;;;;;;;5070020;28;20029;-59
2021/11/14 00:07:29;;;;;;;6.07;4.63;;;;;;;;;;5070825;28;20028;-52
2021/11/14 00:09:55;;;;;;;7.07;4.78;;;;;;;;;;5071500;28;20043;-51
2021/11/14 00:12:21;;;;;;;8.93;5.32;;;;;;;;;;5070358;28;20115;-50
2021/11/14 00:14:47;;;;;;;6.43;3.90;;;;;;;;;;5071416;28;20446;-50
2021/11/14 00:17:13;;;;;;;6.38;4.70;;;;;;;;;;5070282;28;20497;-53
2021/11/14 00:19:40;;;;;;;6.05;4.53;;;;;;;;;;5071652;28;20470;-53
2021/11/14 00:22:07;;;;;;;6.22;4.10;;;;;;;;;;5064221;28;20148;-59
2021/11/14 00:24:33;;;;;;;6.38;4.50;;;;;;;;;;5071209;28;20033;-52
2021/11/14 00:26:59;;;;;;;6.65;4.72;;;;;;;;;;5048296;28;20025;-50
2021/11/14 00:29:26;;;;;;;5.55;4.47;;;;;;;;;;5053098;28;20461;-54
2021/11/14 00:31:52;;;;;;;5.60;4.30;;;;;;;;;;5069324;28;20032;-51
2021/11/14 00:34:18;;;;;;;5.30;4.00;;;;;;;;;;5070216;28;20480;-50
2021/11/14 00:36:44;;;;;;;5.40;4.38;;;;;;;;;;5071292;28;20366;-53
2021/11/14 00:39:16;;;;;;;5.10;3.75;;;;;;;;;;5070410;28;20056;-48
2021/11/14 00:41:42;;;;;;;10.45;4.53;;;;;;;;;;5070911;28;20016;-51
2021/11/14 00:44:09;;;;;;;6.63;4.15;;;;;;;;;;5075887;28;20024;-53
2021/11/14 00:46:35;;;;;;;5.18;4.18;;;;;;;;;;5075729;28;20033;-49
2021/11/14 00:49:01;;;;;;;6.13;4.25;;;;;;;;;;5075116;28;20519;-51
2021/11/14 00:51:30;;;;;;;5.85;3.85;;;;;;;;;;5074475;28;20028;-51
2021/11/14 00:54:01;;;;;;;5.03;3.50;;;;;;;;;;5075223;28;20024;-49
2021/11/14 00:56:27;;;;;;;4.35;3.63;;;;;;;;;;5074206;28;20649;-49
2021/11/14 00:58:54;;;;;;;6.63;4.13;;;;;;;;;;5074126;28;20052;-49
2021/11/14 01:01:21;;;;;;;5.00;4.03;;;;;;;;;;5075001;28;20016;-51
2021/11/14 01:03:47;;;;;;;6.40;4.00;;;;;;;;;;5075160;28;20044;-51
2021/11/14 01:06:13;;;;;;;6.15;4.20;;;;;;;;;;5073685;28;20429;-51
2021/11/14 01:08:39;;;;;;;6.97;4.35;;;;;;;;;;5075035;28;20373;-53
2021/11/14 01:11:06;;;;;;;6.25;4.38;;;;;;;;;;5074338;28;20021;-57
2021/11/14 01:13:33;;;;;;;5.78;4.53;;;;;;;;;;5074681;28;20040;-52
2021/11/14 01:15:59;;;;;;;5.28;4.05;;;;;;;;;;5074775;28;20017;-53
2021/11/14 01:18:25;;;;;;;6.03;3.95;;;;;;;;;;5073657;28;20369;-50
2021/11/14 01:20:53;;;;;;;4.72;3.90;;;;;;;;;;5074849;28;20367;-52
2021/11/14 01:23:19;;;;;;;5.10;4.13;;;;;;;;;;5063902;28;20021;-52
2021/11/14 01:25:46;;;;;;;5.18;4.43;;;;;;;;;;5074804;28;20021;-48
2021/11/14 01:28:12;;;;;;;3.38;2.90;;;;;;;;;;5073624;28;20044;-50
2021/11/14 01:30:40;;;;;;;7.60;3.88;;;;;;;;;;5074690;28;20025;-51
2021/11/14 01:33:07;;;;;;;5.57;3.75;;;;;;;;;;5073743;28;20036;-58
2021/11/14 01:35:33;;;;;;;5.53;4.13;;;;;;;;;;5073499;28;20052;-50
2021/11/14 01:38:00;;;;;;;4.57;3.65;;;;;;;;;;5074006;28;20043;-50
2021/11/14 01:40:28;;;;;;;5.15;3.33;;;;;;;;;;5056888;28;20060;-50
2021/11/14 01:42:55;;;;;;;4.82;4.07;;;;;;;;;;5052665;28;20023;-56
2021/11/14 01:45:21;;;;;;;5.25;3.47;;;;;;;;;;5050334;28;20032;-53
2021/11/14 01:47:48;;;;;;;4.60;3.33;;;;;;;;;;5055116;28;20028;-52
2021/11/14 01:50:15;;;;;;;4.90;3.58;;;;;;;;;;5052047;28;20075;-53
2021/11/14 01:52:42;;;;;;;5.00;3.80;;;;;;;;;;5049707;28;20029;-51
2021/11/14 01:55:09;;;;;;;4.53;3.67;;;;;;;;;;5052297;28;20033;-61
2021/11/14 01:57:37;;;;;;;6.68;3.92;;;;;;;;;;5052394;28;20028;-51
2021/11/14 02:00:05;;;;;;;5.13;3.90;;;;;;;;;;5052845;28;20534;-50
2021/11/14 02:02:31;;;;;;;4.38;3.33;;;;;;;;;;5052333;28;20083;-49
2021/11/14 02:04:57;;;;;;;5.15;3.50;;;;;;;;;;5052639;28;20474;-50
2021/11/14 02:07:23;;;;;;;5.97;4.25;;;;;;;;;;5053596;28;20071;-52
2021/11/14 02:09:50;;;;;;;7.22;3.83;;;;;;;;;;5050827;28;20021;-50
2021/11/14 02:12:16;;;;;;;5.93;3.03;;;;;;;;;;5052399;28;20025;-50
2021/11/14 02:14:42;;;;;;;6.18;3.97;;;;;;;;;;5052376;28;20017;-51
2021/11/14 02:17:10;;;;;;;4.85;3.47;;;;;;;;;;5052796;28;20420;-58
2021/11/14 02:19:36;;;;;;;5.97;3.22;;;;;;;;;;5051873;28;20082;-52
2021/11/14 02:22:03;;;;;;;4.63;3.50;;;;;;;;;;5054397;28;20095;-52
2021/11/14 02:24:29;;;;;;;4.30;3.45;;;;;;;;;;5053882;28;20198;-54
2021/11/14 02:26:55;;;;;;;5.20;4.00;;;;;;;;;;5052535;28;20033;-51
2021/11/14 02:29:21;;;;;;;5.13;3.63;;;;;;;;;;5050993;28;20020;-49
2021/11/14 02:31:47;;;;;;;4.93;3.83;;;;;;;;;;5053859;28;20385;-54
2021/11/14 02:34:14;;;;;;;4.72;3.30;;;;;;;;;;5052738;28;20048;-53
2021/11/14 02:36:40;;;;;;;4.53;3.40;;;;;;;;;;5052046;28;20029;-49
2021/11/14 02:39:10;;;;;;;4.55;3.40;;;;;;;;;;5052086;28;20405;-59
2021/11/14 02:41:36;;;;;;;5.18;3.88;;;;;;;;;;5054857;28;20032;-53
2021/11/14 02:44:02;;;;;;;4.82;3.67;;;;;;;;;;5051821;28;20021;-49
2021/11/14 02:46:28;;;;;;;5.10;3.40;;;;;;;;;;5052182;28;20021;-49
2021/11/14 02:48:54;;;;;;;5.43;3.85;;;;;;;;;;5052674;28;20509;-55
2021/11/14 02:51:22;;;;;;;7.20;3.33;;;;;;;;;;5059327;28;20380;-50
2021/11/14 02:53:49;;;;;;;4.70;3.65;;;;;;;;;;5073288;28;20027;-52
2021/11/14 02:56:16;;;;;;;4.15;3.28;;;;;;;;;;5072112;28;20029;-50
2021/11/14 02:58:43;;;;;;;4.90;3.05;;;;;;;;;;5072980;28;20063;-53
2021/11/14 03:01:20;;;;;;;3.75;3.20;;;;;;;;;;5072049;28;20370;-58
2021/11/14 03:03:47;;;;;;;7.28;3.90;;;;;;;;;;5072707;28;20425;-52
2021/11/14 03:06:14;;;;;;;4.15;3.25;;;;;;;;;;5071618;28;20067;-50
2021/11/14 03:08:40;;;;;;;4.72;3.33;;;;;;;;;;5072561;28;20078;-52
2021/11/14 03:11:07;;;;;;;6.13;4.22;;;;;;;;;;5072578;28;20017;-61
2021/11/14 03:13:33;;;;;;;4.45;2.60;;;;;;;;;;5072141;28;20056;-50
2021/11/14 03:16:01;;;;;;;4.63;3.22;;;;;;;;;;5072908;28;20024;-51
2021/11/14 03:18:27;;;;;;;4.05;2.97;;;;;;;;;;5071446;28;20932;-53
2021/11/14 03:20:54;;;;;;;5.68;3.45;;;;;;;;;;5071822;28;20104;-52
2021/11/14 03:23:21;;;;;;;4.95;3.15;;;;;;;;;;5054680;28;20071;-50
2021/11/14 03:25:47;;;;;;;3.45;2.65;;;;;;;;;;5052487;28;20082;-53
2021/11/14 03:28:15;;;;;;;4.18;3.38;;;;;;;;;;5051443;28;20509;-54
2021/11/14 03:30:41;;;;;;;5.00;3.58;;;;;;;;;;5070156;28;20060;-50
2021/11/14 03:33:11;;;;;;;5.38;2.80;;;;;;;;;;5072192;28;20036;-56
2021/11/14 03:35:41;;;;;;;3.92;3.10;;;;;;;;;;5071717;28;20052;-51
2021/11/14 03:38:08;;;;;;;5.25;3.05;;;;;;;;;;5072242;28;20021;-53
2021/11/14 03:40:34;;;;;;;4.85;3.10;;;;;;;;;;5071352;28;20025;-55
2021/11/14 03:43:01;;;;;;;3.90;3.45;;;;;;;;;;5071885;28;20029;-52
2021/11/14 03:45:27;;;;;;;3.95;3.10;;;;;;;;;;5070979;28;20488;-54
2021/11/14 03:47:53;;;;;;;3.38;2.78;;;;;;;;;;5072159;28;20032;-54
2021/11/14 03:50:20;;;;;;;3.83;3.08;;;;;;;;;;5070899;28;20027;-51
2021/11/14 03:52:46;;;;;;;5.22;3.13;;;;;;;;;;5071823;28;20103;-53
2021/11/14 03:55:14;;;;;;;3.22;2.92;;;;;;;;;;5070990;28;20028;-59
2021/11/14 03:57:44;;;;;;;5.13;3.60;;;;;;;;;;5072053;28;20028;-53
2021/11/14 04:00:15;;;;;;;3.88;3.10;;;;;;;;;;5071496;28;20035;-61
2021/11/14 04:02:41;;;;;;;4.88;3.25;;;;;;;;;;5070437;28;20025;-51
2021/11/14 04:05:07;;;;;;;5.30;3.03;;;;;;;;;;5071806;28;20059;-53
2021/11/14 04:07:33;;;;;;;5.38;3.67;;;;;;;;;;5070763;28;20036;-50
2021/11/14 04:09:59;;;;;;;3.92;3.25;;;;;;;;;;5071808;28;20020;-51
2021/11/14 04:12:25;;;;;;;3.88;3.00;;;;;;;;;;5069532;28;20116;-51
2021/11/14 04:14:52;;;;;;;3.60;3.00;;;;;;;;;;5071684;28;20028;-52
2021/11/14 04:17:18;;;;;;;4.35;3.10;;;;;;;;;;5072764;28;20074;-49
2021/11/14 04:19:44;;;;;;;3.97;3.22;;;;;;;;;;5075677;28;20112;-49
2021/11/14 04:22:17;;;;;;;3.22;2.67;;;;;;;;;;5075364;28;20442;-59
2021/11/14 04:24:43;;;;;;;4.20;3.25;;;;;;;;;;5075623;28;20496;-51
2021/11/14 04:27:09;;;;;;;4.45;3.35;;;;;;;;;;5075475;28;20050;-50
2021/11/14 04:29:35;;;;;;;5.15;3.22;;;;;;;;;;5074775;28;20025;-51
2021/11/14 04:32:01;;;;;;;4.20;3.10;;;;;;;;;;5075246;28;20025;-49
2021/11/14 04:34:27;;;;;;;3.72;3.30;;;;;;;;;;5074525;28;20069;-54
2021/11/14 04:36:53;;;;;;;3.17;2.70;;;;;;;;;;5075471;28;20123;-53
2021/11/14 04:39:19;;;;;;;3.67;2.75;;;;;;;;;;5074672;28;20028;-52
2021/11/14 04:41:45;;;;;;;4.35;2.55;;;;;;;;;;5075231;28;20064;-51
2021/11/14 04:44:17;;;;;;;4.10;3.15;;;;;;;;;;5074958;28;20032;-57
2021/11/14 04:46:43;;;;;;;2.90;2.60;;;;;;;;;;5075290;28;20025;-48
2021/11/14 04:49:09;;;;;;;3.35;2.65;;;;;;;;;;5075152;28;20069;-48
2021/11/14 04:51:35;;;;;;;3.85;2.88;;;;;;;;;;5074020;28;20064;-49
2021/11/14 04:54:02;;;;;;;3.33;2.53;;;;;;;;;;5075128;28;20024;-49
2021/11/14 04:56:30;;;;;;;3.30;2.42;;;;;;;;;;5074192;28;20031;-51
2021/11/14 04:58:56;;;;;;;4.57;3.17;;;;;;;;;;5075318;28;20090;-50
2021/11/14 05:01:22;;;;;;;3.40;2.50;;;;;;;;;;5073741;28;20493;-53
2021/11/14 05:03:48;;;;;;;3.40;2.80;;;;;;;;;;5075000;28;20420;-50
2021/11/14 05:06:16;;;;;;;4.22;3.20;;;;;;;;;;5074524;28;20036;-60
2021/11/14 05:08:42;;;;;;;3.50;2.60;;;;;;;;;;5075083;28;20028;-50
2021/11/14 05:11:08;;;;;;;3.17;2.78;;;;;;;;;;5074110;28;20482;-50
2021/11/14 05:13:34;;;;;;;3.05;2.40;;;;;;;;;;5074115;28;20168;-49
2021/11/14 05:16:00;;;;;;;3.75;2.40;;;;;;;;;;5074946;28;20043;-51
2021/11/14 05:18:26;;;;;;;2.63;2.28;;;;;;;;;;5073929;28;20374;-54
2021/11/14 05:20:53;;;;;;;4.05;2.58;;;;;;;;;;5074677;28;20112;-50
2021/11/14 05:23:19;;;;;;;3.58;2.42;;;;;;;;;;5070606;28;20077;-53
2021/11/14 05:25:46;;;;;;;3.10;2.40;;;;;;;;;;5074842;28;20021;-52
2021/11/14 05:28:14;;;;;;;3.80;2.40;;;;;;;;;;5074586;28;20051;-57
2021/11/14 05:30:40;;;;;;;3.65;2.75;;;;;;;;;;5074214;28;20024;-51
2021/11/14 05:33:07;;;;;;;3.15;2.28;;;;;;;;;;5074194;28;20386;-53
2021/11/14 05:35:33;;;;;;;4.22;3.13;;;;;;;;;;5072963;28;20057;-52
2021/11/14 05:37:59;;;;;;;3.65;2.90;;;;;;;;;;5074300;28;20028;-54
2021/11/14 05:40:25;;;;;;;3.28;2.22;;;;;;;;;;5073417;28;20043;-52
2021/11/14 05:42:51;;;;;;;3.65;2.75;;;;;;;;;;5074091;28;20113;-49
2021/11/14 05:45:17;;;;;;;3.13;2.47;;;;;;;;;;5073810;28;20028;-57
2021/11/14 05:47:43;;;;;;;3.63;2.28;;;;;;;;;;5074012;28;20031;-52
2021/11/14 05:50:10;;;;;;;4.18;2.40;;;;;;;;;;5074259;28;20366;-52
2021/11/14 05:52:36;;;;;;;3.53;2.40;;;;;;;;;;5073015;28;20024;-53
2021/11/14 05:55:04;;;;;;;3.00;2.20;;;;;;;;;;5074206;28;20020;-52
2021/11/14 05:57:36;;;;;;;3.30;2.50;;;;;;;;;;5072962;28;20024;-54
2021/11/14 06:00:09;;;;;;;2.97;2.58;;;;;;;;;;5073740;28;20055;-51
2021/11/14 06:02:51;;;;;;;3.90;2.40;;;;;;;;;;5072989;28;20090;-51
2021/11/14 06:05:18;;;;;;;3.72;2.40;;;;;;;;;;5072876;28;20027;-55
2021/11/14 06:07:45;;;;;;;4.65;2.35;;;;;;;;;;5065843;28;20037;-53
2021/11/14 06:10:11;;;;;;;2.97;2.42;;;;;;;;;;5074476;28;20579;-54
2021/11/14 06:12:38;;;;;;;3.72;2.38;;;;;;;;;;5074070;28;20537;-49
2021/11/14 06:15:05;;;;;;;2.78;2.30;;;;;;;;;;5072052;28;20120;-49
2021/11/14 06:17:31;;;;;;;4.18;2.50;;;;;;;;;;5071833;28;20033;-49
2021/11/14 06:19:57;;;;;;;2.30;2.03;;;;;;;;;;5072107;28;20071;-58
2021/11/14 06:22:23;;;;;;;2.83;2.40;;;;;;;;;;5064804;28;20462;-49
2021/11/14 06:24:50;;;;;;;2.75;2.33;;;;;;;;;;5071160;28;20374;-49
2021/11/14 06:27:18;;;;;;;3.15;2.60;;;;;;;;;;5071802;28;20028;-59
2021/11/14 06:29:44;;;;;;;2.67;2.17;;;;;;;;;;5073557;28;20028;-50
2021/11/14 06:32:10;;;;;;;3.30;2.70;;;;;;;;;;5071948;28;20028;-51
2021/11/14 06:34:37;;;;;;;3.40;2.30;;;;;;;;;;5072239;28;20106;-48
2021/11/14 06:37:04;;;;;;;3.70;2.80;;;;;;;;;;5072101;28;20070;-50
2021/11/14 06:39:30;;;;;;;3.50;2.78;;;;;;;;;;5071934;28;20067;-49
2021/11/14 06:41:56;;;;;;;3.78;2.33;;;;;;;;;;5072163;28;20375;-50
2021/11/14 06:44:23;;;;;;;4.00;3.00;;;;;;;;;;5071563;28;20483;-50
2021/11/14 06:46:49;;;;;;;3.75;3.05;;;;;;;;;;5072051;28;20059;-50
2021/11/14 06:49:18;;;;;;;2.65;2.10;;;;;;;;;;5071632;28;20358;-57
2021/11/14 06:51:44;;;;;;;2.55;2.17;;;;;;;;;;5072723;28;20045;-50
2021/11/14 06:54:10;;;;;;;3.90;2.53;;;;;;;;;;5071674;28;20026;-48
2021/11/14 06:56:38;;;;;;;3.85;3.05;;;;;;;;;;5071830;28;20100;-52
2021/11/14 06:59:04;;;;;;;3.50;2.85;;;;;;;;;;5072846;28;20024;-49
2021/11/14 07:01:30;;;;;;;2.83;2.33;;;;;;;;;;5071749;28;20044;-48
2021/11/14 07:03:56;;;;;;;2.55;2.20;;;;;;;;;;5072653;28;20127;-46
2021/11/14 07:06:22;;;;;;;7.32;3.50;;;;;;;;;;5071831;28;20393;-48
2021/11/14 07:08:48;;;;;;;2.85;2.53;;;;;;;;;;5072233;28;20038;-49
2021/11/14 07:11:17;;;;;;;2.70;2.42;;;;;;;;;;5071021;28;20095;-52
2021/11/14 07:13:43;;;;;;;3.08;2.35;;;;;;;;;;5072423;28;20028;-48
2021/11/14 07:16:09;;;;;;;3.60;2.78;;;;;;;;;;5072700;28;20020;-53
2021/11/14 07:18:35;;;;;;;2.72;2.28;;;;;;;;;;5070191;28;20093;-49
2021/11/14 07:21:01;;;;;;;3.53;2.30;;;;;;;;;;5051919;28;20029;-49
2021/11/14 07:23:27;;;;;;;2.97;2.30;;;;;;;;;;5057223;28;20513;-50
2021/11/14 07:25:53;;;;;;;3.53;2.80;;;;;;;;;;5051628;28;20021;-49
2021/11/14 07:28:19;;;;;;;2.63;2.35;;;;;;;;;;5052945;28;20424;-57
2021/11/14 07:30:46;;;;;;;4.20;2.72;;;;;;;;;;5051956;28;20032;-49
2021/11/14 07:33:12;;;;;;;2.97;2.08;;;;;;;;;;5052964;28;20098;-49
2021/11/14 07:35:38;;;;;;;4.63;2.55;;;;;;;;;;5050600;28;20099;-51
2021/11/14 07:38:04;;;;;;;3.75;2.40;;;;;;;;;;5051946;28;20021;-52
2021/11/14 07:40:31;;;;;;;4.97;2.38;;;;;;;;;;5068206;28;20155;-50
2021/11/14 07:42:58;;;;;;;3.35;2.13;;;;;;;;;;5071517;28;20036;-50
2021/11/14 07:45:25;;;;;;;4.45;2.67;;;;;;;;;;5065734;28;20031;-52
2021/11/14 07:47:51;;;;;;;3.45;2.63;;;;;;;;;;5051411;28;20040;-50
2021/11/14 07:50:22;;;;;;;4.18;2.20;;;;;;;;;;5066117;28;20031;-58
2021/11/14 07:52:49;;;;;;;3.10;2.58;;;;;;;;;;5070766;28;20039;-55
2021/11/14 07:55:15;;;;;;;3.70;2.20;;;;;;;;;;5060015;28;20291;-53
2021/11/14 07:57:45;;;;;;;4.15;2.58;;;;;;;;;;5050494;28;20373;-50
2021/11/14 08:00:12;;;;;;;2.65;2.05;;;;;;;;;;5072052;28;20078;-49
2021/11/14 08:02:39;;;;;;;3.00;2.40;;;;;;;;;;5071155;28;20032;-55
2021/11/14 08:05:06;;;;;;;3.67;2.38;;;;;;;;;;5072140;28;20040;-49
2021/11/14 08:07:32;;;;;;;4.45;2.40;;;;;;;;;;5071196;28;20037;-53
2021/11/14 08:09:58;;;;;;;5.20;2.67;;;;;;;;;;5071539;28;20024;-51
2021/11/14 08:12:25;;;;;;;4.10;2.67;;;;;;;;;;5070993;28;20361;-48
2021/11/14 08:14:52;;;;;;;5.03;2.45;;;;;;;;;;5071822;28;20107;-50
2021/11/14 08:17:25;;;;;;;7.63;3.80;;;;;;;;;;5070983;28;20029;-53
2021/11/14 08:19:51;;;;;;;6.25;3.65;;;;;;;;;;5071793;28;20081;-49
2021/11/14 08:22:19;;;;;;;7.18;4.32;;;;;;;;;;5068747;28;20043;-48
2021/11/14 08:24:46;;;;;;;6.60;3.58;;;;;;;;;;5052001;28;20089;-46
2021/11/14 08:27:12;;;;;;;5.18;3.30;;;;;;;;;;5072957;28;20462;-47
2021/11/14 08:29:38;;;;;;;5.90;3.67;;;;;;;;;;5070504;28;20031;-46
2021/11/14 08:32:04;;;;;;;5.97;3.55;;;;;;;;;;5071113;28;20025;-46
2021/11/14 08:34:30;;;;;;;7.43;4.18;;;;;;;;;;5070329;28;20059;-46
2021/11/14 08:36:56;;;;;;;7.40;4.15;;;;;;;;;;5068151;28;20033;-55
2021/11/14 08:39:23;;;;;;;8.25;3.80;;;;;;;;;;5050475;28;20029;-56
2021/11/14 08:41:49;;;;;;;5.72;4.03;;;;;;;;;;5052372;28;20512;-48
2021/11/14 08:44:15;;;;;;;6.43;4.25;;;;;;;;;;5071549;28;20032;-45
2021/11/14 08:46:41;;;;;;;5.50;3.83;;;;;;;;;;5070290;28;20059;-48
2021/11/14 08:49:07;;;;;;;7.65;4.07;;;;;;;;;;5071164;28;20020;-46
2021/11/14 08:51:33;;;;;;;12.00;4.60;;;;;;;;;;5060190;28;20036;-46
2021/11/14 08:54:00;;;;;;;6.30;3.92;;;;;;;;;;5058668;28;20548;-47
2021/11/14 08:56:29;;;;;;;7.35;3.80;;;;;;;;;;5050180;28;20493;-45
2021/11/14 08:58:55;;;;;;;6.32;3.55;;;;;;;;;;5048794;28;20375;-46
2021/11/14 09:01:23;;;;;;;6.75;3.97;;;;;;;;;;5050349;28;20112;-56
2021/11/14 09:03:49;;;;;;;5.90;3.85;;;;;;;;;;5058965;28;20032;-50
2021/11/14 09:06:15;;;;;;;6.57;4.30;;;;;;;;;;5054814;28;20462;-48
2021/11/14 09:08:41;;;;;;;7.07;4.38;;;;;;;;;;5054321;28;20198;-45
2021/11/14 09:11:08;;;;;;;9.02;4.22;;;;;;;;;;5067753;28;20050;-49
2021/11/14 09:13:34;;;;;;;4.82;3.67;;;;;;;;;;5072251;28;20027;-47
2021/11/14 09:16:00;;;;;;;5.22;3.35;;;;;;;;;;5074769;28;20100;-47
2021/11/14 09:18:27;;;;;;;4.82;3.50;;;;;;;;;;5074016;28;20029;-45
2021/11/14 09:20:53;;;;;;;6.03;3.30;;;;;;;;;;5074196;28;20090;-45
2021/11/14 09:23:27;;;;;;;4.05;3.05;;;;;;;;;;5057477;28;20021;-55
2021/11/14 09:25:54;;;;;;;8.18;3.45;;;;;;;;;;5054653;28;20023;-49
2021/11/14 09:28:26;;;;;;;3.95;2.90;;;;;;;;;;5054226;28;20028;-57
2021/11/14 09:30:52;;;;;;;4.03;2.85;;;;;;;;;;5061821;28;20381;-46
2021/11/14 09:33:19;;;;;;;3.35;2.47;;;;;;;;;;5073777;28;20474;-49
2021/11/14 09:35:45;;;;;;;4.07;2.92;;;;;;;;;;5073938;28;20048;-49
2021/11/14 09:38:12;;;;;;;4.10;2.85;;;;;;;;;;5073592;28;20063;-46
2021/11/14 09:40:38;;;;;;;8.35;3.35;;;;;;;;;;5073250;28;20481;-48
2021/11/14 09:43:05;;;;;;;5.43;3.22;;;;;;;;;;5073490;28;20016;-47
2021/11/14 09:45:33;;;;;;;4.90;3.08;;;;;;;;;;5073497;28;20078;-46
2021/11/14 09:48:00;;;;;;;4.13;2.90;;;;;;;;;;5073795;28;20028;-56
2021/11/14 09:50:30;;;;;;;6.82;3.03;;;;;;;;;;5069195;28;20103;-58
2021/11/14 09:52:57;;;;;;;3.17;2.63;;;;;;;;;;5048148;28;20025;-52
2021/11/14 09:55:25;;;;;;;4.63;2.58;;;;;;;;;;5055379;28;20037;-49
2021/11/14 09:57:51;;;;;;;15.95;2.83;;;;;;;;;;5054763;28;20025;-49
2021/11/14 10:00:18;;;;;;;3.88;2.88;;;;;;;;;;5073991;28;20104;-50
2021/11/14 10:02:45;;;;;;;4.10;2.50;;;;;;;;;;5072919;28;20029;-49
2021/11/14 10:05:12;;;;;;;4.10;2.97;;;;;;;;;;5073855;28;20369;-46
2021/11/14 10:07:41;;;;;;;5.70;3.20;;;;;;;;;;5073079;28;20064;-50
2021/11/14 10:10:08;;;;;;;3.63;2.42;;;;;;;;;;5073505;28;20028;-50
2021/11/14 10:12:38;;;;;;;3.35;2.47;;;;;;;;;;5072685;28;20370;-50
2021/11/14 10:15:15;;;;;;;3.90;2.65;;;;;;;;;;5072427;28;20099;-49
2021/11/14 10:17:46;;;;;;;3.47;2.88;;;;;;;;;;5072890;28;20362;-48
2021/11/14 10:20:14;;;;;;;3.92;2.35;;;;;;;;;;5073534;28;20033;-51
2021/11/14 10:22:45;;;;;;;3.78;2.60;;;;;;;;;;5057330;28;20029;-50
2021/11/14 10:25:11;;;;;;;3.65;2.65;;;;;;;;;;5073197;28;20033;-48
2021/11/14 10:27:38;;;;;;;4.25;2.28;;;;;;;;;;5072259;28;20512;-51
2021/11/14 10:30:05;;;;;;;7.15;3.20;;;;;;;;;;5072804;28;20103;-51
2021/11/14 10:32:31;;;;;;;4.35;2.90;;;;;;;;;;5072214;28;20032;-53
2021/11/14 10:34:59;;;;;;;4.57;3.03;;;;;;;;;;5071642;28;20052;-46
2021/11/14 10:37:27;;;;;;;4.40;2.35;;;;;;;;;;5072269;28;20033;-57
2021/11/14 10:40:03;;;;;;;5.05;2.75;;;;;;;;;;5073240;28;20043;-46
2021/11/14 10:42:30;;;;;;;4.85;2.47;;;;;;;;;;5072184;28;20031;-46
2021/11/14 10:44:58;;;;;;;5.05;2.65;;;;;;;;;;5072882;28;20039;-47
2021/11/14 10:47:28;;;;;;;4.88;3.15;;;;;;;;;;5072188;28;20115;-57
2021/11/14 10:50:08;;;;;;;4.30;2.75;;;;;;;;;;5073103;28;20013;-46
2021/11/14 10:52:35;;;;;;;4.82;2.90;;;;;;;;;;5052908;28;20032;-46
2021/11/14 10:55:07;;;;;;;6.28;2.72;;;;;;;;;;5072985;28;20032;-47
2021/11/14 10:57:34;;;;;;;3.45;2.58;;;;;;;;;;5071595;28;20493;-48
2021/11/14 11:00:01;;;;;;;4.20;2.72;;;;;;;;;;5072312;28;20033;-46
2021/11/14 11:02:28;;;;;;;3.40;2.55;;;;;;;;;;5071831;28;20063;-55
2021/11/14 11:04:55;;;;;;;4.20;2.50;;;;;;;;;;5066698;28;20029;-46
2021/11/14 11:07:23;;;;;;;4.20;2.80;;;;;;;;;;5062339;28;20175;-47
2021/11/14 11:09:54;;;;;;;4.47;3.13;;;;;;;;;;5056275;28;20493;-46
2021/11/14 11:12:24;;;;;;;4.72;3.40;;;;;;;;;;5052289;28;20475;-52
2021/11/14 11:14:51;;;;;;;3.70;2.70;;;;;;;;;;5031726;28;20365;-47
2021/11/14 11:17:17;;;;;;;4.78;2.80;;;;;;;;;;5045039;28;20103;-46
2021/11/14 11:19:43;;;;;;;4.18;2.97;;;;;;;;;;5071759;28;20024;-47
2021/11/14 11:22:10;;;;;;;3.35;2.63;;;;;;;;;;5065841;28;20070;-47
2021/11/14 11:24:46;;;;;;;3.92;2.92;;;;;;;;;;5071089;28;20021;-46
2021/11/14 11:27:12;;;;;;;4.57;2.72;;;;;;;;;;5071759;28;20082;-50
2021/11/14 11:29:39;;;;;;;5.13;2.90;;;;;;;;;;5071010;28;20081;-45
2021/11/14 11:32:07;;;;;;;3.95;2.50;;;;;;;;;;5071894;28;20028;-49
2021/11/14 11:34:33;;;;;;;6.00;2.90;;;;;;;;;;5070475;28;20045;-47
2021/11/14 11:36:59;;;;;;;4.22;2.97;;;;;;;;;;5072045;28;20345;-47
2021/11/14 11:39:27;;;;;;;4.70;2.88;;;;;;;;;;5071944;28;20029;-47
2021/11/14 11:41:53;;;;;;;4.93;2.65;;;;;;;;;;5071502;28;20024;-50
2021/11/14 11:44:19;;;;;;;3.63;2.20;;;;;;;;;;5071549;28;20082;-47
2021/11/14 11:46:53;;;;;;;4.20;2.70;;;;;;;;;;5070862;28;20035;-47
2021/11/14 11:49:21;;;;;;;10.18;3.25;;;;;;;;;;5071657;28;20048;-49
2021/11/14 11:51:49;;;;;;;6.43;3.67;;;;;;;;;;5059841;28;20056;-46
2021/11/14 11:54:16;;;;;;;9.82;5.15;;;;;;;;;;5063720;28;20086;-47
2021/11/14 11:56:44;;;;;;;8.52;6.45;;;;;;;;;;5070672;28;20031;-53
2021/11/14 11:59:12;;;;;;;11.40;7.47;;;;;;;;;;5071689;28;20090;-46
2021/11/14 12:01:44;;;;;;;9.48;6.88;;;;;;;;;;5070836;28;20066;-47
2021/11/14 12:04:10;;;;;;;;;;;;;;;;;;5071782;28;20028;-47
2021/11/14 12:06:40;;;;;;;9.00;7.35;;;;;;;;;;5070631;28;19987;-47
2021/11/14 12:09:09;;;;;;;9.70;6.65;;;;;;;;;;5071762;28;20028;-50
2021/11/14 12:11:37;;;;;;;8.57;6.60;;;;;;;;;;5070486;28;20500;-49
2021/11/14 12:14:18;;;;;;;11.48;6.80;;;;;;;;;;5071182;28;20060;-48
2021/11/14 12:16:55;;;;;;;9.70;6.80;;;;;;;;;;5070854;28;20031;-52
2021/11/14 12:19:24;;;;;;;7.38;5.93;;;;;;;;;;5071768;28;20135;-49
2021/11/14 12:22:02;;;;;;;6.72;5.50;;;;;;;;;;5059348;28;20090;-50
2021/11/14 12:24:47;;;;;;;9.70;6.47;;;;;;;;;;5064402;28;20113;-58
2021/11/14 12:27:32;;;;;;;9.35;5.50;;;;;;;;;;5071252;28;20040;-49
2021/11/14 12:30:17;;;;;;;8.05;5.72;;;;;;;;;;5071532;28;20485;-50
2021/11/14 12:32:51;;;;;;;7.88;5.57;;;;;;;;;;5070624;28;20028;-52
2021/11/14 12:35:21;;;;;;;9.40;5.95;;;;;;;;;;5071219;28;20057;-51
2021/11/14 12:37:49;;;;;;;8.70;6.07;;;;;;;;;;5071826;28;20382;-47
2021/11/14 12:40:20;;;;;;;9.13;5.97;;;;;;;;;;5075158;28;20025;-45
2021/11/14 12:42:46;;;;;;;6.80;5.35;;;;;;;;;;5074644;28;20092;-45
2021/11/14 12:45:12;;;;;;;9.02;5.25;;;;;;;;;;5073812;28;20355;-47
2021/11/14 12:47:41;;;;;;;8.68;5.28;;;;;;;;;;5074093;28;20035;-46
2021/11/14 12:50:22;;;;;;;7.82;5.38;;;;;;;;;;5074240;28;20082;-48
2021/11/14 12:52:50;;;;;;;5.65;4.38;;;;;;;;;;5055567;28;20070;-47
2021/11/14 12:55:16;;;;;;;7.68;4.75;;;;;;;;;;5074355;28;20024;-46
2021/11/14 12:57:44;;;;;;;7.93;5.53;;;;;;;;;;5073689;28;20036;-45
2021/11/14 13:00:11;;;;;;;6.57;4.70;;;;;;;;;;5075215;28;20032;-46
2021/11/14 13:02:47;;;;;;;7.90;5.25;;;;;;;;;;5073879;28;20028;-46
2021/11/14 13:05:15;;;;;;;16.60;7.10;;;;;;;;;;5074441;28;20040;-46
2021/11/14 13:07:49;;;;;;;7.63;5.20;;;;;;;;;;5074249;28;20028;-46
2021/11/14 13:10:17;;;;;;;7.72;5.15;;;;;;;;;;5074919;28;20373;-46
2021/11/14 13:12:45;;;;;;;11.23;5.80;;;;;;;;;;5073436;28;20481;-47
2021/11/14 13:15:11;;;;;;;6.60;5.20;;;;;;;;;;5074350;28;20036;-46
2021/11/14 13:17:37;;;;;;;7.75;4.88;;;;;;;;;;5073768;28;20135;-46
2021/11/14 13:20:04;;;;;;;8.80;5.72;;;;;;;;;;5053666;28;20355;-51
2021/11/14 13:22:36;;;;;;;7.63;5.20;;;;;;;;;;5053198;28;20024;-59
2021/11/14 13:25:04;;;;;;;11.38;5.32;;;;;;;;;;5062647;28;20104;-47
2021/11/14 13:27:36;;;;;;;6.40;4.95;;;;;;;;;;5052821;28;20029;-57
2021/11/14 13:30:03;;;;;;;7.95;5.10;;;;;;;;;;5053523;28;20032;-49
2021/11/14 13:32:34;;;;;;;7.93;5.28;;;;;;;;;;5065827;28;20059;-53
2021/11/14 13:35:00;;;;;;;6.32;4.15;;;;;;;;;;5074284;28;20056;-51
2021/11/14 13:37:31;;;;;;;6.80;4.65;;;;;;;;;;5074671;28;20028;-50
2021/11/14 13:40:05;;;;;;;6.82;4.40;;;;;;;;;;5074050;28;20094;-45
2021/11/14 13:42:42;;;;;;;7.88;4.93;;;;;;;;;;5073935;28;20029;-54
2021/11/14 13:45:08;;;;;;;6.05;4.28;;;;;;;;;;5074050;28;20020;-48
2021/11/14 13:47:39;;;;;;;5.13;3.90;;;;;;;;;;5073131;28;20508;-63
2021/11/14 13:50:10;;;;;;;5.57;3.65;;;;;;;;;;5052146;28;20033;-52
2021/11/14 13:52:37;;;;;;;6.33;3.67;;;;;;;;;;5062662;28;20099;-57
2021/11/14 13:55:06;;;;;;;8.43;4.50;;;;;;;;;;5073979;28;20032;-55
2021/11/14 13:57:39;;;;;;;5.28;3.55;;;;;;;;;;5072194;28;20024;-60
2021/11/14 14:00:25;;;;;;;6.65;3.50;;;;;;;;;;5072760;28;20558;-55
2021/11/14 14:02:52;;;;;;;5.88;3.67;;;;;;;;;;5072915;28;20021;-57
2021/11/14 14:05:20;;;;;;;4.35;3.60;;;;;;;;;;5073552;28;20020;-57
2021/11/14 14:07:47;;;;;;;7.15;3.63;;;;;;;;;;5073119;28;20206;-53
2021/11/14 14:10:15;;;;;;;4.68;3.03;;;;;;;;;;5073317;28;20059;-56
2021/11/14 14:12:45;;;;;;;5.05;3.28;;;;;;;;;;5072763;28;20036;-54
2021/11/14 14:15:19;;;;;;;3.33;2.78;;;;;;;;;;5073419;28;20496;-57
2021/11/14 14:17:46;;;;;;;4.70;3.03;;;;;;;;;;5072252;28;20031;-55
2021/11/14 14:20:14;;;;;;;4.65;3.03;;;;;;;;;;5063405;28;20063;-55
2021/11/14 14:22:41;;;;;;;4.50;3.13;;;;;;;;;;5061025;28;20413;-55
2021/11/14 14:25:09;;;;;;;5.50;3.50;;;;;;;;;;5063714;28;20028;-55
2021/11/14 14:27:39;;;;;;;4.63;3.13;;;;;;;;;;5072751;28;20025;-56
2021/11/14 14:30:08;;;;;;;5.90;2.70;;;;;;;;;;5073230;28;20373;-53
2021/11/14 14:32:35;;;;;;;4.97;3.50;;;;;;;;;;5072566;28;20454;-59
2021/11/14 14:35:10;;;;;;;3.88;2.70;;;;;;;;;;5072500;28;20525;-52
2021/11/14 14:37:43;;;;;;;4.05;3.03;;;;;;;;;;5072412;28;20056;-53
2021/11/14 14:40:10;;;;;;;5.30;3.00;;;;;;;;;;5073449;28;20033;-55
2021/11/14 14:42:36;;;;;;;4.68;3.47;;;;;;;;;;5071875;28;20029;-60
2021/11/14 14:45:13;;;;;;;4.82;3.15;;;;;;;;;;5072262;28;20715;-55